Riverton, WY (82501)

5:35 AM MDT on August 21, 2014 (GMT -0600)
Logan Park | Change Station
CLOSE
Current Station
Personal Weather Station
Location: Riverton, WY
Elevation: 4984 ft
Nearby Weather Stations

Elev 4984 ft 43.04 °N, 108.39 °W | Updated 4 seconds ago

Mostly Cloudy
Mostly Cloudy
54.0 °F
Feels Like 54.0 °F
N
0.0
Wind Variable Wind from SSE
Gusts 0.0 mph

Today
High -- | Low -- °F
--% Chance of Precip.
Yesterday
High -- | Low -- °F
Precip. -- in
6:25 AM 8:06 PM
Waning Crescent, 15% visible
Pressure 29.85 in
Visibility 10.0 miles
Clouds Mostly Cloudy 11000 ft
Dew Point 46 °F
Humidity 74%
Rainfall 0.00 in
Snow Depth Not available.
UV 0 out of 12
Pollen 9.00 out of 12
Air Quality Not available.
Flu Activity Not available.
METAR KRIW 211053Z AUTO 30005KT 10SM BKN110 14/05 A3004 RMK AO2 SLP107 T01440050

More Conditions Fewer Conditions

Pressure 29.85 in
Visibility 10.0 miles
Clouds Mostly Cloudy 11000 ft
Dew Point 46 °F
Humidity 74%
Rainfall 0.00 in
Snow Depth Not available.
UV 0 out of 12
Pollen 9.00 out of 12
Air Quality Not available.
Flu Activity Not available.
METAR KRIW 211053Z AUTO 30005KT 10SM BKN110 14/05 A3004 RMK AO2 SLP107 T01440050

More Conditions Fewer Conditions

10-Day Weather Forecast

Almanac

Astronomy

Aug. 21, 2014 Rise Set
Actual Time 6:25 AM MDT 8:06 PM MDT
Civil Twilight 5:55 AM MDT 8:36 PM MDT
Nautical Twilight 5:19 AM MDT 9:13 PM MDT
Astronomical Twilight 4:39 AM MDT 9:52 PM MDT
Moon 2:56 AM MDT 5:39 PM MDT
Length of Visible Light 14h 40m
Length of Day
13h 40m
Tomorrow will be 2m 42s shorter.
Waning Crescent, 15% of the Moon is Illuminated
Today
Waning Crescent
Aug 25
New
Sep 2
First Quarter
Sep 8
Full
Sep 15
Last Quarter

Today's Extremes

State Highs State Lows

Community

WunderPhotos

Upload Photos

1,745,862 photos uploaded!

Nearby

Snow Depth

Station Depth Elevation
Townsend Creek 0 in 8700 ft
St. Lawrence Alt 1 in 8620 ft
South Pass 0 in 9040 ft
Big Sandy Opening 1 in 9080 ft
New Fork Lake 0 in 8340 ft

Earthquake Activity

City Distance Mag. Time & Date
No recent earthquake activity has been reported nearby.
Minimum magnitude displayed is 2.5.

Coastal Water Temperatures

Place Temperature
No Stations Reporting

Nearby Weather Stations